Tuesday, October 16, 2018, 6:45 AM EDT
Back to Local

KBUF, Greater Buffalo International Airport

Location: Buffalo, NY, United States Lat: 42.933
Local Time: 6:45 AM EDT (10:45 GMT) Lon: -78.733
Time Zone: US/Eastern Elev: 725 ft

Show me the last for .
Show Decoded

2018-10-16 05:54 METAR KBUF 160954Z 28009KT 10SM FEW040 03/M03 A3015 RMK AO2 SLP214 T00331028 =
2018-10-16 04:54 METAR KBUF 160854Z 26010KT 10SM CLR 03/M03 A3014 RMK AO2 SLP212 T00331028 53003
                 =
2018-10-16 03:54 METAR KBUF 160754Z 26011KT 10SM CLR 03/M03 A3013 RMK AO2 SLP208 T00331028 =
2018-10-16 02:54 METAR KBUF 160654Z 26011KT 10SM CLR 04/M03 A3014 RMK AO2 SLP209 T00391033 =
2018-10-16 01:54 METAR KBUF 160554Z 25012KT 10SM CLR 04/M03 A3013 RMK AO2 SLP208 60000 T00441033
                 10089 20044 51008 =
2018-10-16 00:54 METAR KBUF 160454Z 25010KT 10SM FEW050 04/M03 A3013 RMK AO2 SLP206 T00441033
                 401440044 =
2018-10-15 23:54 METAR KBUF 160354Z 26010G18KT 10SM FEW050 05/M03 A3013 RMK AO2 SLP205 T00501028
                 =
2018-10-15 22:54 METAR KBUF 160254Z 26012G22KT 10SM FEW050 FEW110 06/M03 A3011 RMK AO2 PK WND
                 27027/0210 SLP198 60000 T00561028 51046 =
2018-10-15 21:54 METAR KBUF 160154Z 28016G28KT 10SM FEW048 SCT050 SCT110 06/M03 A3008 RMK AO2 PK
                 WND 28032/0055 SLP188 T00611033 =
2018-10-15 21:06 METAR KBUF 160106Z 28017G29KT 10SM FEW023 BKN042 BKN055 08/00 A3003 RMK AO2 PK
                 WND 28032/0055 T00780000 =
2018-10-15 20:54 METAR KBUF 160054Z 29020G31KT 10SM BKN025 BKN045 BKN060 08/01 A3002 RMK AO2 PK
                 WND 28031/0054 PRESRR SLP169 T00830006 =
2018-10-15 19:54 METAR KBUF 152354Z 27019G25KT 10SM FEW025 FEW045 FEW120 09/02 A2997 RMK AO2 PK
                 WND 28028/2322 SLP151 60000 T00890022 10128 20089 53037 =
2018-10-15 18:54 METAR KBUF 152254Z 26016G22KT 10SM FEW025 SCT045 SCT065 10/06 A2992 RMK AO2 PK
                 WND 27029/2206 RAE01 SLP135 P0000 T01000056 =
2018-10-15 18:26 METAR KBUF 152226Z 26020G28KT 10SM SCT027 BKN041 BKN065 11/06 A2990 RMK AO2 PK
                 WND 27029/2206 RAE01 P0000 T01060056 =
2018-10-15 18:14 METAR KBUF 152214Z 28017G29KT 10SM BKN027 BKN034 BKN070 11/06 A2989 RMK AO2 PK
                 WND 27029/2206 RAE01 P0000 T01060061 =
2018-10-15 17:54 METAR KBUF 152154Z 28015G26KT 10SM -RA SCT020 BKN034 OVC047 11/07 A2989 RMK AO2
                 PK WND 29026/2148 SLP124 RAB45 P0000 T01060067 =
2018-10-15 16:54 METAR KBUF 152054Z 27015G21KT 10SM FEW015 BKN034 BKN060 11/07 A2986 RMK AO2 PK
                 WND 27030/2002 SLP113 60000 T01110067 53015 =
2018-10-15 15:54 METAR KBUF 151954Z 26016G23KT 10SM FEW019 BKN036 OVC060 12/09 A2983 RMK AO2 PK
                 WND 25028/1933 SLP106 SHRA DSNT E-SE T01220094 =
2018-10-15 15:18 METAR KBUF 151918Z 26018G24KT 10SM FEW014 BKN025 OVC050 13/10 A2983 RMK AO2 PK
                 WND 27027/1900 SHRA DSNT E-SE T01280100 =
2018-10-15 14:54 METAR KBUF 151854Z 26015G21KT 10SM FEW009 SCT019 OVC039 13/11 A2982 RMK AO2 PK
                 WND 26028/1800 RAE18 SLP099 SHRA DSNT NE-SE-SW P0000 T01280106 =
2018-10-15 14:24 METAR KBUF 151824Z 25011KT 10SM FEW009 FEW015 OVC032 12/11 A2981 RMK AO2 PK WND
                 26028/1800 RAE18 SHRA DSNT NE-SE-SW P0000 T01220106 =
2018-10-15 14:06 METAR KBUF 151806Z 26014G28KT 8SM -RA FEW009 FEW015 OVC028 12/11 A2981 =
2018-10-15 13:54 METAR KBUF 151754Z 27013G26KT 8SM -RA BKN009 BKN015 OVC024 13/12 A2981 RMK AO2
                 PK WND 22032/1704 SLP098 CIG 005V011 VIS LWR NE-E P0004 60009 T01280122 10144
                 20100 53001 =
2018-10-15 13:19 METAR KBUF 151719Z 26016G28KT 5SM R23/6000VP6000FT -RA BR BKN008 OVC015 14/13
                 A2979 =
2018-10-15 13:13 METAR KBUF 151713Z 24019G32KT 1 3/4SM R23/3500VP6000FT RA BR BKN008 OVC015 14/14
                 A2979 RMK AO2 PK WND 22032/1704 CIG 005V011 P0003 T01440139 =
2018-10-15 12:54 METAR KBUF 151654Z 23018G27KT 2 1/2SM R23/5500VP6000FT -RA BR BKN009 OVC014
                 14/13 A2979 RMK AO2 PK WND 23027/1654 SLP091 CIG 007V011 P0003 T01440133 =
2018-10-15 12:51 METAR KBUF 151651Z 23019G26KT 2 1/2SM R23/5500VP6000FT -RA BR BKN009 OVC014
                 14/13 A2980 RMK AO2 PK WND 22026/1643 CIG 007V011 P0003 =
2018-10-15 12:16 METAR KBUF 151616Z 22012KT 4SM -RA BR BKN009 OVC014 14/13 A2980 RMK AO2 CIG
                 007V011 P0002 T01390133 =
2018-10-15 11:54 METAR KBUF 151554Z 20014KT 2 1/2SM -RA BR BKN009 OVC014 13/13 A2981 RMK AO2
                 SLP098 VIS E 4 CIG 007V011 P0001 T01330128 =
2018-10-15 11:01 METAR KBUF 151501Z 21015KT 10SM -RA BKN008 BKN014 OVC020 13/12 A2983 RMK AO2
                 PCPN VRY LGT P0000 T01280122 =
2018-10-15 10:54 METAR KBUF 151454Z 20014KT 5SM -RA BR FEW008 BKN014 OVC020 13/13 A2982 RMK AO2
                 SLP102 P0001 60001 T01280128 56020 =
2018-10-15 09:54 METAR KBUF 151354Z 21013KT 4SM -RA BR OVC014 13/12 A2984 RMK AO2 RAB46 SLP107
                 P0000 T01280117 =
2018-10-15 09:18 METAR KBUF 151318Z 20010KT 10SM OVC015 12/11 A2985 RMK AO2 T01220106 =
2018-10-15 08:54 METAR KBUF 151254Z 19005KT 10SM OVC014 12/10 A2986 RMK AO2 RAE24 SLP116 P0000
                 T01170100 =
2018-10-15 08:24 METAR KBUF 151224Z 17006KT 10SM OVC015 11/09 A2988 RMK AO2 RAE24 P0000 T01060094
                 =
2018-10-15 07:54 METAR KBUF 151154Z 16003KT 10SM -RA OVC012 10/09 A2988 RMK AO2 RAB33 SLP122
                 P0000 60000 T01000094 10106 20078 58012 =
2018-10-15 07:33 METAR KBUF 151133Z 14004KT 6SM -RA BR OVC014 10/09 A2988 RMK AO2 RAB33 P0000
                 T01000094 =
2018-10-15 06:54 METAR KBUF 151054Z 16005KT 7SM OVC016 10/08 A2990 RMK AO2 SLP127 T01000083 =

Support USWX by starting your Amazon purchase here.